Time;durP1;ratioP1;P1;durP2;ratioP2;P2;SDS_P1;SDS_P2;PMS_P1;PMS_P2;Temp;Humidity;BMP_temperature;BMP_pressure;BME280_temperature;BME280_humidity;BME280_pressure;Samples;Min_cycle;Max_cycle;Signal;HPM_P1;HPM_P2
2021/10/17 00:01:06;;;;;;;5.75;3.03;;;12.70;96.70;;;;;;5090357;28;20117;-82
2021/10/17 00:03:35;;;;;;;4.30;2.80;;;12.70;96.70;;;;;;5071978;28;20062;-82
2021/10/17 00:06:03;;;;;;;6.93;3.08;;;12.70;96.70;;;;;;5091432;28;20036;-81
2021/10/17 00:08:32;;;;;;;4.15;2.78;;;12.80;96.70;;;;;;5090292;28;20046;-82
2021/10/17 00:11:00;;;;;;;3.80;2.90;;;12.70;96.70;;;;;;5085951;28;20536;-82
2021/10/17 00:13:29;;;;;;;4.43;2.50;;;12.60;96.70;;;;;;5086758;28;20047;-82
2021/10/17 00:16:00;;;;;;;5.60;3.58;;;12.60;96.70;;;;;;5089589;28;20513;-82
2021/10/17 00:18:29;;;;;;;4.78;3.20;;;12.60;96.70;;;;;;5091571;28;20501;-82
2021/10/17 00:20:57;;;;;;;4.03;2.80;;;12.60;96.70;;;;;;5068900;28;20047;-82
2021/10/17 00:23:25;;;;;;;4.07;3.42;;;12.70;96.70;;;;;;5089986;28;20357;-82
2021/10/17 00:25:54;;;;;;;5.32;3.03;;;12.70;96.70;;;;;;5086939;28;20227;-82
2021/10/17 00:28:23;;;;;;;2.90;2.45;;;12.70;96.70;;;;;;5084506;28;20126;-82
2021/10/17 00:30:54;;;;;;;2.92;2.60;;;12.70;96.70;;;;;;5092967;28;20147;-82
2021/10/17 00:33:27;;;;;;;3.83;2.70;;;12.60;96.70;;;;;;5077067;28;20410;-82
2021/10/17 00:35:55;;;;;;;2.78;2.20;;;12.70;96.70;;;;;;5068734;28;20376;-82
2021/10/17 00:38:24;;;;;;;4.53;2.25;;;12.70;96.70;;;;;;5088175;28;20048;-82
2021/10/17 00:40:53;;;;;;;4.10;2.40;;;12.60;96.70;;;;;;5072765;28;20456;-82
2021/10/17 00:43:22;;;;;;;6.00;2.50;;;12.50;96.70;;;;;;5072043;28;20040;-82
2021/10/17 00:45:51;;;;;;;3.92;2.42;;;12.60;96.70;;;;;;5070243;28;20047;-82
2021/10/17 00:48:19;;;;;;;3.30;2.53;;;12.50;96.70;;;;;;5092866;28;20374;-82
2021/10/17 00:50:50;;;;;;;3.47;2.75;;;12.50;96.70;;;;;;5087812;28;20044;-82
2021/10/17 00:53:21;;;;;;;4.22;3.00;;;12.50;96.70;;;;;;5095027;28;20079;-82
2021/10/17 00:55:53;;;;;;;4.25;2.58;;;12.50;96.70;;;;;;5083941;28;20056;-82
2021/10/17 00:58:21;;;;;;;4.45;2.78;;;12.50;96.70;;;;;;5084899;28;20032;-82
2021/10/17 01:00:51;;;;;;;4.45;2.95;;;12.50;96.70;;;;;;5080735;28;20037;-82
2021/10/17 01:03:20;;;;;;;3.00;2.67;;;12.20;96.70;;;;;;5088623;28;20586;-82
2021/10/17 01:05:50;;;;;;;3.97;3.28;;;12.10;96.70;;;;;;5086486;28;20051;-82
2021/10/17 01:08:19;;;;;;;6.65;3.80;;;12.10;96.70;;;;;;5085403;28;20674;-82
2021/10/17 01:10:52;;;;;;;5.15;3.35;;;12.00;96.70;;;;;;5085189;28;21104;-82
2021/10/17 01:13:22;;;;;;;4.43;2.85;;;12.00;96.70;;;;;;5088756;28;20044;-82
2021/10/17 01:15:51;;;;;;;5.53;3.38;;;12.00;96.70;;;;;;5080436;28;20052;-83
2021/10/17 01:18:24;;;;;;;4.63;3.60;;;12.10;96.70;;;;;;5068699;28;20489;-82
2021/10/17 01:20:57;;;;;;;4.55;3.28;;;12.00;96.70;;;;;;5087027;28;20048;-81
2021/10/17 01:23:26;;;;;;;4.18;3.38;;;12.00;96.70;;;;;;5087918;28;20054;-82
2021/10/17 01:25:55;;;;;;;4.47;3.33;;;12.00;96.70;;;;;;5101642;28;20036;-82
2021/10/17 01:28:23;;;;;;;4.07;3.35;;;12.10;96.70;;;;;;5089102;28;20267;-82
2021/10/17 01:30:52;;;;;;;3.30;2.65;;;12.10;96.70;;;;;;5101282;27;20048;-82
2021/10/17 01:33:21;;;;;;;4.63;3.55;;;12.10;96.70;;;;;;5077813;28;20458;-82
2021/10/17 01:35:49;;;;;;;4.55;3.42;;;12.00;96.70;;;;;;5076146;28;20055;-82
2021/10/17 01:38:20;;;;;;;5.68;3.60;;;11.90;96.70;;;;;;5097225;28;20406;-82
2021/10/17 01:40:49;;;;;;;4.85;3.58;;;12.00;96.70;;;;;;5096729;28;20295;-83
2021/10/17 01:43:17;;;;;;;5.38;3.70;;;11.90;96.70;;;;;;5090457;28;20387;-82
2021/10/17 01:46:09;;;;;;;4.93;3.38;;;11.70;96.70;;;;;;5092341;28;20090;-83
2021/10/17 01:48:42;;;;;;;5.20;3.45;;;11.60;96.70;;;;;;5092561;28;20067;-83
2021/10/17 01:51:11;;;;;;;5.47;3.35;;;11.60;96.70;;;;;;5093320;28;20044;-87
2021/10/17 01:53:41;;;;;;;4.47;3.63;;;11.50;96.70;;;;;;5077790;28;20096;-85
2021/10/17 01:56:12;;;;;;;7.45;3.22;;;11.40;96.70;;;;;;5084105;28;20056;-85
2021/10/17 01:58:40;;;;;;;5.10;3.65;;;11.30;96.70;;;;;;5095789;28;20101;-86
2021/10/17 02:01:09;;;;;;;4.65;3.20;;;11.40;96.70;;;;;;5082765;28;20032;-87
2021/10/17 02:03:39;;;;;;;5.60;3.28;;;11.40;96.70;;;;;;5078167;28;20196;-86
2021/10/17 02:06:07;;;;;;;5.38;3.78;;;11.50;96.70;;;;;;5084397;28;20043;-86
2021/10/17 02:08:36;;;;;;;5.28;3.20;;;11.60;96.70;;;;;;5099402;27;20057;-86
2021/10/17 02:11:08;;;;;;;4.28;3.55;;;11.60;96.70;;;;;;5080781;28;20449;-87
2021/10/17 02:13:37;;;;;;;4.93;3.42;;;11.50;96.70;;;;;;5091340;28;20524;-86
2021/10/17 02:16:05;;;;;;;5.15;3.50;;;11.60;96.70;;;;;;5097675;28;20044;-86
2021/10/17 02:18:34;;;;;;;4.47;3.30;;;11.50;96.70;;;;;;5098451;28;20067;-85
2021/10/17 02:21:03;;;;;;;5.00;2.67;;;11.50;96.70;;;;;;5088976;28;20363;-86
2021/10/17 02:23:32;;;;;;;4.40;2.90;;;11.50;96.70;;;;;;5099380;27;20112;-86
2021/10/17 02:26:01;;;;;;;4.53;3.15;;;11.50;96.70;;;;;;5088082;28;20066;-83
2021/10/17 02:28:51;;;;;;;7.00;3.00;;;11.40;96.70;;;;;;5085469;28;20397;-83
2021/10/17 02:31:19;;;;;;;5.10;3.15;;;11.40;96.70;;;;;;5087046;28;20586;-83
2021/10/17 02:33:52;;;;;;;4.13;2.72;;;11.40;96.70;;;;;;5095706;28;20046;-82
2021/10/17 02:36:21;;;;;;;4.55;2.83;;;11.40;96.70;;;;;;5086270;28;20125;-82
2021/10/17 02:38:49;;;;;;;3.25;2.67;;;11.40;96.70;;;;;;5087384;28;20044;-83
2021/10/17 02:41:17;;;;;;;3.47;2.63;;;11.40;96.70;;;;;;5075631;28;20035;-83
2021/10/17 02:43:45;;;;;;;3.70;2.55;;;11.40;96.70;;;;;;5091029;28;20565;-83
2021/10/17 02:46:15;;;;;;;5.18;2.42;;;11.40;96.70;;;;;;5092105;28;20044;-83
2021/10/17 02:48:44;;;;;;;5.43;2.35;;;11.30;96.70;;;;;;5083305;28;20043;-83
2021/10/17 02:51:12;;;;;;;4.22;2.80;;;11.30;96.70;;;;;;5086647;28;20040;-83
2021/10/17 02:53:40;;;;;;;3.90;2.75;;;11.30;96.70;;;;;;5092207;28;20071;-83
2021/10/17 02:56:09;;;;;;;4.65;2.60;;;11.40;96.70;;;;;;5077329;28;20047;-83
2021/10/17 02:58:37;;;;;;;4.22;2.85;;;11.30;96.70;;;;;;5074587;28;20059;-83
2021/10/17 03:01:05;;;;;;;4.63;2.85;;;11.10;96.70;;;;;;5082140;28;20424;-83
2021/10/17 03:03:37;;;;;;;3.42;2.10;;;11.10;96.70;;;;;;5077233;28;20043;-83
2021/10/17 03:06:05;;;;;;;3.60;2.70;;;11.20;96.70;;;;;;5076505;28;20163;-83
2021/10/17 03:08:38;;;;;;;4.28;2.50;;;11.00;96.70;;;;;;5092286;28;20620;-83
2021/10/17 03:11:07;;;;;;;4.22;2.50;;;11.10;96.70;;;;;;5088254;28;20040;-82
2021/10/17 03:13:40;;;;;;;3.28;2.50;;;11.10;96.70;;;;;;5087963;28;20040;-82
2021/10/17 03:16:12;;;;;;;3.60;2.40;;;10.90;96.70;;;;;;5073449;28;20043;-83
2021/10/17 03:18:42;;;;;;;7.40;2.92;;;10.80;96.70;;;;;;5090264;28;20469;-83
2021/10/17 03:21:15;;;;;;;3.70;2.70;;;10.90;96.70;;;;;;5089547;28;20520;-84
2021/10/17 03:23:43;;;;;;;5.68;2.70;;;11.00;96.70;;;;;;5076116;28;20059;-83
2021/10/17 03:26:11;;;;;;;4.50;2.60;;;10.90;96.70;;;;;;5076333;28;20044;-82
2021/10/17 03:28:43;;;;;;;4.93;2.35;;;10.90;96.70;;;;;;5077394;28;20171;-83
2021/10/17 03:31:11;;;;;;;5.65;2.60;;;10.90;96.70;;;;;;5091482;28;20066;-83
2021/10/17 03:33:40;;;;;;;3.15;2.28;;;10.90;96.70;;;;;;5093109;28;20040;-83
2021/10/17 03:36:14;;;;;;;3.55;2.45;;;10.90;96.70;;;;;;5080893;28;20056;-83
2021/10/17 03:38:42;;;;;;;4.60;2.60;;;10.90;96.70;;;;;;5077195;28;20078;-83
2021/10/17 03:41:13;;;;;;;4.90;2.50;;;10.70;96.70;;;;;;5091268;27;20050;-83
2021/10/17 03:43:47;;;;;;;4.45;2.75;;;10.80;96.70;;;;;;5078795;28;20101;-83
2021/10/17 03:46:16;;;;;;;3.30;2.58;;;10.70;96.70;;;;;;5093544;28;20528;-83
2021/10/17 03:48:46;;;;;;;5.45;2.97;;;10.60;96.70;;;;;;5090365;28;20138;-82
2021/10/17 03:51:19;;;;;;;3.90;2.25;;;10.60;96.70;;;;;;5080416;28;20040;-90
2021/10/17 03:53:49;;;;;;;5.10;2.42;;;10.60;96.70;;;;;;5088837;28;20421;-89
2021/10/17 03:56:17;;;;;;;3.55;2.55;;;10.60;96.70;;;;;;5086692;28;20043;-83
2021/10/17 03:58:45;;;;;;;3.38;2.50;;;10.50;96.70;;;;;;5089774;28;20039;-87
2021/10/17 04:01:14;;;;;;;4.40;2.20;;;10.50;96.70;;;;;;5069692;28;20047;-82
2021/10/17 04:03:42;;;;;;;4.47;2.55;;;10.40;96.70;;;;;;5088825;28;20071;-83
2021/10/17 04:06:11;;;;;;;3.75;2.38;;;10.40;96.70;;;;;;5088356;28;20506;-86
2021/10/17 04:08:44;;;;;;;4.70;2.45;;;10.40;96.70;;;;;;5093630;28;20035;-82
2021/10/17 04:11:12;;;;;;;4.38;2.33;;;10.50;96.70;;;;;;5084519;28;20529;-83
2021/10/17 04:13:40;;;;;;;3.35;2.35;;;10.50;96.70;;;;;;5075781;28;20040;-83
2021/10/17 04:16:09;;;;;;;3.22;2.30;;;10.50;96.70;;;;;;5091511;28;20101;-88
2021/10/17 04:18:38;;;;;;;5.68;2.58;;;10.60;96.70;;;;;;5091339;28;20036;-86
2021/10/17 04:21:06;;;;;;;4.05;2.45;;;10.50;96.70;;;;;;5091126;28;20040;-88
2021/10/17 04:23:34;;;;;;;3.90;2.50;;;10.50;96.70;;;;;;5073487;28;20063;-87
2021/10/17 04:26:04;;;;;;;5.25;2.38;;;10.50;96.70;;;;;;5089307;28;20077;-86
2021/10/17 04:28:38;;;;;;;3.30;2.75;;;10.60;96.70;;;;;;5088408;28;20394;-87
2021/10/17 04:31:06;;;;;;;4.50;2.90;;;10.60;96.70;;;;;;5085898;28;20101;-87
2021/10/17 04:33:34;;;;;;;4.03;3.05;;;10.50;96.70;;;;;;5089941;28;20122;-85
2021/10/17 04:36:03;;;;;;;5.20;2.85;;;10.50;96.70;;;;;;5089874;28;20486;-86
2021/10/17 04:38:33;;;;;;;7.00;3.20;;;10.40;96.70;;;;;;5070902;28;20050;-87
2021/10/17 04:41:02;;;;;;;4.70;2.72;;;10.30;96.70;;;;;;5092196;28;20489;-88
2021/10/17 04:43:32;;;;;;;5.53;2.90;;;10.10;96.70;;;;;;5089876;28;20461;-86
2021/10/17 04:46:02;;;;;;;4.10;2.72;;;10.00;96.70;;;;;;5075301;28;20048;-88
2021/10/17 04:48:30;;;;;;;5.47;2.78;;;9.90;96.70;;;;;;5076268;28;20135;-88
2021/10/17 04:50:59;;;;;;;4.20;3.03;;;9.90;96.70;;;;;;5090941;28;20044;-87
2021/10/17 04:53:27;;;;;;;3.67;2.65;;;9.90;96.70;;;;;;5077820;28;20476;-87
2021/10/17 04:55:55;;;;;;;3.80;2.42;;;9.90;96.70;;;;;;5085654;28;20060;-87
2021/10/17 04:58:27;;;;;;;4.43;2.88;;;10.20;96.70;;;;;;5076067;28;20173;-87
2021/10/17 05:01:03;;;;;;;5.60;3.25;;;10.20;96.70;;;;;;5093953;28;20055;-85
2021/10/17 05:03:32;;;;;;;4.32;2.75;;;10.20;96.70;;;;;;5078527;28;20063;-86
2021/10/17 05:06:01;;;;;;;3.92;3.00;;;10.10;96.70;;;;;;5079446;28;20116;-86
2021/10/17 05:08:29;;;;;;;7.30;3.53;;;10.20;96.70;;;;;;5095422;28;20072;-87
2021/10/17 05:10:57;;;;;;;4.60;3.10;;;10.00;96.70;;;;;;5079280;28;20050;-86
2021/10/17 05:13:25;;;;;;;5.32;3.13;;;10.00;96.70;;;;;;5076849;28;20040;-86
2021/10/17 05:15:53;;;;;;;5.85;3.28;;;10.10;96.70;;;;;;5074822;28;20047;-86
2021/10/17 05:18:23;;;;;;;4.18;2.88;;;10.10;96.70;;;;;;5086885;28;20536;-87
2021/10/17 05:20:57;;;;;;;4.07;2.90;;;10.10;96.70;;;;;;5075877;28;20052;-87
2021/10/17 05:23:25;;;;;;;3.70;2.67;;;10.20;96.70;;;;;;5088709;28;20059;-87
2021/10/17 05:25:55;;;;;;;4.38;3.30;;;10.20;96.70;;;;;;5097765;28;20039;-87
2021/10/17 05:28:23;;;;;;;6.05;3.17;;;10.20;96.70;;;;;;5093079;28;20493;-86
2021/10/17 05:30:57;;;;;;;7.00;3.05;;;10.20;96.70;;;;;;5083314;28;20116;-87
2021/10/17 05:33:27;;;;;;;4.78;3.63;;;10.20;96.70;;;;;;5096443;28;20051;-87
2021/10/17 05:35:55;;;;;;;5.00;3.80;;;10.10;96.70;;;;;;5096115;28;20048;-86
2021/10/17 05:38:24;;;;;;;6.25;3.90;;;10.10;96.70;;;;;;5082393;28;20394;-87
2021/10/17 05:40:52;;;;;;;7.00;4.40;;;10.10;96.70;;;;;;5082874;28;20412;-87
2021/10/17 05:43:21;;;;;;;5.80;3.92;;;10.10;96.70;;;;;;5098051;28;20145;-86
2021/10/17 05:45:50;;;;;;;5.30;3.47;;;10.10;96.70;;;;;;5080990;28;20052;-88
2021/10/17 05:48:18;;;;;;;6.10;2.97;;;10.00;96.70;;;;;;5101713;28;20048;-88
2021/10/17 05:50:48;;;;;;;4.20;3.30;;;10.00;96.70;;;;;;5077394;28;20063;-87
2021/10/17 05:53:17;;;;;;;5.80;2.85;;;9.90;96.70;;;;;;5095774;28;20267;-86
2021/10/17 05:55:45;;;;;;;4.93;3.28;;;9.90;96.70;;;;;;5095925;28;20071;-85
2021/10/17 05:58:13;;;;;;;4.40;2.67;;;9.90;96.70;;;;;;5097994;28;20319;-87
2021/10/17 06:00:42;;;;;;;6.05;3.00;;;9.90;96.70;;;;;;5103130;28;20074;-87
2021/10/17 06:03:10;;;;;;;3.83;2.72;;;9.80;96.70;;;;;;5073717;28;20032;-87
2021/10/17 06:06:02;;;;;;;5.05;2.50;;;9.80;96.70;;;;;;5093764;28;20105;-87
2021/10/17 06:08:35;;;;;;;5.45;2.83;;;9.90;96.70;;;;;;5096717;28;20035;-86
2021/10/17 06:11:04;;;;;;;4.53;2.90;;;10.00;96.70;;;;;;5076524;28;20130;-86
2021/10/17 06:13:33;;;;;;;4.32;2.92;;;10.00;96.70;;;;;;5098668;28;20047;-85
2021/10/17 06:16:02;;;;;;;6.32;3.38;;;10.10;96.70;;;;;;5078832;28;20094;-88
2021/10/17 06:18:31;;;;;;;6.25;2.83;;;10.10;96.70;;;;;;5090764;28;20116;-86
2021/10/17 06:21:02;;;;;;;5.22;2.83;;;10.20;96.70;;;;;;5092121;28;20071;-86
2021/10/17 06:23:30;;;;;;;4.18;3.35;;;10.20;96.70;;;;;;5098334;28;20038;-86
2021/10/17 06:25:58;;;;;;;6.03;3.30;;;10.20;96.70;;;;;;5092526;28;20080;-86
2021/10/17 06:28:28;;;;;;;6.45;3.72;;;10.20;96.70;;;;;;5087978;28;20070;-86
2021/10/17 06:30:56;;;;;;;10.18;5.15;;;10.20;96.70;;;;;;5094280;28;20047;-85
2021/10/17 06:33:24;;;;;;;11.93;6.80;;;10.10;96.70;;;;;;5089758;28;20082;-87
2021/10/17 06:35:53;;;;;;;13.40;6.78;;;10.20;96.70;;;;;;5085886;28;20472;-87
2021/10/17 06:38:22;;;;;;;9.50;6.05;;;10.20;96.70;;;;;;5083970;28;20036;-85
2021/10/17 06:40:52;;;;;;;10.27;4.70;;;10.20;96.70;;;;;;5088071;28;20040;-86
2021/10/17 06:43:20;;;;;;;11.55;4.13;;;10.20;96.70;;;;;;5096759;28;20104;-87
2021/10/17 06:45:54;;;;;;;5.25;3.65;;;10.10;96.70;;;;;;5092136;28;20100;-87
2021/10/17 06:48:27;;;;;;;8.15;3.85;;;10.20;96.70;;;;;;5088030;28;20040;-88
2021/10/17 06:50:56;;;;;;;5.85;3.92;;;10.20;96.70;;;;;;5094200;28;20048;-85
2021/10/17 06:53:25;;;;;;;5.47;3.65;;;10.30;96.70;;;;;;5088723;28;20043;-86
2021/10/17 06:55:54;;;;;;;5.93;3.70;;;10.40;96.70;;;;;;5076927;28;20580;-88
2021/10/17 06:58:25;;;;;;;4.97;3.58;;;10.40;96.70;;;;;;5079343;28;20150;-84
2021/10/17 07:00:53;;;;;;;4.25;3.22;;;10.50;96.70;;;;;;5077827;28;20108;-86
2021/10/17 07:03:22;;;;;;;7.78;3.28;;;10.50;96.70;;;;;;5097358;28;20457;-87
2021/10/17 07:06:06;;;;;;;5.18;2.97;;;10.50;96.70;;;;;;5083410;28;20490;-86
2021/10/17 07:08:39;;;;;;;5.20;3.40;;;10.60;96.70;;;;;;5101105;28;20052;-87
2021/10/17 07:11:11;;;;;;;7.13;3.50;;;10.70;96.70;;;;;;5092975;28;20059;-86
2021/10/17 07:13:39;;;;;;;5.50;3.08;;;10.80;96.70;;;;;;5096732;28;20532;-87
2021/10/17 07:16:10;;;;;;;4.85;3.35;;;10.90;96.70;;;;;;5080176;28;21059;-86
2021/10/17 07:18:38;;;;;;;5.05;3.40;;;10.90;96.70;;;;;;5089327;28;20062;-87
2021/10/17 07:21:08;;;;;;;4.97;3.50;;;10.90;96.70;;;;;;5092175;28;20131;-87
2021/10/17 07:23:38;;;;;;;6.50;3.63;;;11.00;96.70;;;;;;5086123;28;20040;-87
2021/10/17 07:26:06;;;;;;;5.55;3.42;;;10.90;96.70;;;;;;5081146;28;20467;-86
2021/10/17 07:28:34;;;;;;;6.45;4.05;;;11.00;96.70;;;;;;5088081;28;20055;-85
2021/10/17 07:31:06;;;;;;;4.65;3.33;;;11.20;96.70;;;;;;5087612;28;20443;-88
2021/10/17 07:33:57;;;;;;;5.07;3.63;;;11.30;96.70;;;;;;5086203;28;20402;-85
2021/10/17 07:36:25;;;;;;;4.53;3.67;;;11.40;96.70;;;;;;5091119;28;20124;-85
2021/10/17 07:39:05;;;;;;;6.82;3.92;;;11.40;96.70;;;;;;5084940;28;20051;-84
2021/10/17 07:41:36;;;;;;;6.97;3.85;;;11.50;96.70;;;;;;5097907;28;20387;-87
2021/10/17 07:44:07;;;;;;;8.68;4.60;;;11.60;96.70;;;;;;5075677;28;20044;-88
2021/10/17 07:46:45;;;;;;;6.30;4.03;;;11.70;96.70;;;;;;5083738;28;20044;-84
2021/10/17 07:49:13;;;;;;;6.18;4.30;;;11.70;96.70;;;;;;5085390;28;20042;-83
2021/10/17 07:51:42;;;;;;;6.28;4.20;;;11.80;96.70;;;;;;5076900;28;20487;-84
2021/10/17 07:54:13;;;;;;;6.18;4.10;;;11.80;96.70;;;;;;5072709;28;20039;-85
2021/10/17 07:56:43;;;;;;;5.95;4.00;;;11.90;96.70;;;;;;5101219;28;20055;-87
2021/10/17 07:59:11;;;;;;;6.55;3.92;;;12.00;96.70;;;;;;5098087;28;20044;-87
2021/10/17 08:01:42;;;;;;;6.63;4.90;;;12.10;96.70;;;;;;5094095;28;20455;-78
2021/10/17 08:04:40;;;;;;;7.47;4.68;;;12.20;96.70;;;;;;5041820;28;20045;-88
2021/10/17 08:07:14;;;;;;;7.13;5.20;;;12.40;96.70;;;;;;5022433;28;20049;-82
2021/10/17 08:09:46;;;;;;;8.23;5.65;;;12.40;96.70;;;;;;5011637;28;20103;-82
2021/10/17 08:12:14;;;;;;;6.20;5.07;;;12.50;96.70;;;;;;5000423;28;20041;-82
2021/10/17 08:14:43;;;;;;;7.15;4.80;;;12.60;96.70;;;;;;5002127;28;20069;-83
2021/10/17 08:17:14;;;;;;;8.25;5.22;;;12.60;96.70;;;;;;5024324;28;20210;-83
2021/10/17 08:19:57;;;;;;;8.15;5.72;;;12.70;96.70;;;;;;5024114;28;20264;-80
2021/10/17 08:22:25;;;;;;;9.95;5.82;;;12.70;96.70;;;;;;5018759;28;20108;-85
2021/10/17 08:24:58;;;;;;;8.15;6.13;;;12.80;96.70;;;;;;5024532;28;20079;-85
2021/10/17 08:27:26;;;;;;;8.52;6.55;;;13.00;96.70;;;;;;5003291;28;20144;-82
2021/10/17 08:29:55;;;;;;;11.10;7.45;;;13.10;96.70;;;;;;5021689;28;20157;-83
2021/10/17 08:32:23;;;;;;;15.90;8.38;;;13.20;96.70;;;;;;5005389;28;20570;-85
2021/10/17 08:34:51;;;;;;;12.43;9.25;;;13.30;96.70;;;;;;5018477;28;20114;-85
2021/10/17 08:37:21;;;;;;;11.73;9.15;;;13.30;96.70;;;;;;5022904;28;20131;-84
2021/10/17 08:40:19;;;;;;;13.00;9.38;;;13.40;96.70;;;;;;5039886;28;20049;-75
2021/10/17 08:43:17;;;;;;;14.50;9.60;;;13.50;96.70;;;;;;5059073;28;20064;-88
2021/10/17 08:45:55;;;;;;;12.32;8.27;;;13.60;96.70;;;;;;5060363;28;20399;-93
2021/10/17 08:48:31;;;;;;;11.63;8.02;;;13.70;96.70;;;;;;5037091;28;20968;-84
2021/10/17 08:51:02;;;;;;;14.77;7.20;;;13.90;96.70;;;;;;5041806;28;20041;-83
2021/10/17 08:53:43;;;;;;;14.25;7.65;;;14.00;96.70;;;;;;5054389;28;20585;-82
2021/10/17 08:56:17;;;;;;;9.85;7.20;;;14.10;96.70;;;;;;5042723;28;20083;-84
2021/10/17 08:58:48;;;;;;;10.73;7.05;;;14.20;96.70;;;;;;5062372;28;20553;-88
2021/10/17 09:01:33;;;;;;;11.05;7.35;;;14.30;96.70;;;;;;5037976;28;20049;-84
2021/10/17 09:04:05;;;;;;;9.50;6.50;;;14.50;96.70;;;;;;5042972;28;20449;-89
2021/10/17 09:06:49;;;;;;;9.65;6.63;;;14.60;96.70;;;;;;5051732;28;20521;-89
2021/10/17 09:09:19;;;;;;;9.45;6.20;;;14.70;96.70;;;;;;5029032;28;20052;-88
2021/10/17 09:11:57;;;;;;;14.25;6.20;;;14.80;96.70;;;;;;5029497;28;20532;-83
2021/10/17 09:14:30;;;;;;;12.48;6.00;;;14.90;96.70;;;;;;5053134;28;20131;-86
2021/10/17 09:16:59;;;;;;;9.15;6.07;;;15.00;96.70;;;;;;5055740;28;20640;-87
2021/10/17 09:19:29;;;;;;;7.95;5.50;;;15.10;96.70;;;;;;5053148;28;20059;-87
2021/10/17 09:22:04;;;;;;;10.55;5.82;;;15.20;96.70;;;;;;5072020;28;20047;-85
2021/10/17 09:24:34;;;;;;;7.30;5.30;;;15.30;96.70;;;;;;5086832;28;20273;-87
2021/10/17 09:27:10;;;;;;;6.95;5.82;;;15.40;96.70;;;;;;5079821;28;20047;-88
2021/10/17 09:29:40;;;;;;;7.17;5.33;;;15.50;96.70;;;;;;5079464;28;20044;-89
2021/10/17 09:32:17;;;;;;;7.40;5.78;;;15.70;96.70;;;;;;5072624;28;20359;-89
2021/10/17 09:34:54;;;;;;;8.07;5.97;;;15.80;96.70;;;;;;5086387;28;20042;-90
2021/10/17 09:37:30;;;;;;;8.13;6.15;;;15.90;96.70;;;;;;5090881;28;20051;-87
2021/10/17 09:40:25;;;;;;;7.22;5.43;;;16.00;96.70;;;;;;5076251;28;20059;-88
2021/10/17 09:43:25;;;;;;;8.32;5.32;;;16.20;96.70;;;;;;5088128;28;20051;-89
2021/10/17 09:46:15;;;;;;;4.93;4.30;;;16.30;96.70;;;;;;5094612;28;20044;-89
2021/10/17 09:48:43;;;;;;;6.15;4.47;;;16.40;96.70;;;;;;5081500;28;20093;-87
2021/10/17 09:51:14;;;;;;;6.38;4.45;;;16.60;96.70;;;;;;5095631;28;20130;-89
2021/10/17 09:53:44;;;;;;;5.57;4.00;;;16.70;96.70;;;;;;5083979;28;20044;-89
2021/10/17 09:56:32;;;;;;;5.13;4.25;;;16.70;96.70;;;;;;5078713;28;20139;-88
2021/10/17 09:59:04;;;;;;;6.80;4.88;;;16.90;96.70;;;;;;5097564;28;20551;-88
2021/10/17 10:01:32;;;;;;;6.38;4.80;;;16.90;96.70;;;;;;5078258;28;20048;-88
2021/10/17 10:04:03;;;;;;;4.43;3.63;;;16.90;96.70;;;;;;5082488;28;20069;-89
2021/10/17 10:06:32;;;;;;;6.22;4.43;;;17.00;96.70;;;;;;5093822;28;20593;-86
2021/10/17 10:09:03;;;;;;;4.50;3.60;;;17.10;96.70;;;;;;5089559;28;20104;-87
2021/10/17 10:11:32;;;;;;;7.05;3.50;;;17.20;96.70;;;;;;5097902;28;20046;-86
2021/10/17 10:14:06;;;;;;;4.05;3.08;;;17.30;96.70;;;;;;5092514;28;20044;-87
2021/10/17 10:16:35;;;;;;;4.45;3.13;;;17.50;96.70;;;;;;5091397;28;20043;-87
2021/10/17 10:19:05;;;;;;;4.25;3.28;;;17.60;96.70;;;;;;5089722;28;20050;-91
2021/10/17 10:21:34;;;;;;;3.35;2.75;;;17.60;96.70;;;;;;5089829;28;20032;-87
2021/10/17 10:24:04;;;;;;;4.78;3.08;;;17.90;96.70;;;;;;5090464;28;20066;-90
2021/10/17 10:26:33;;;;;;;5.15;3.45;;;17.90;96.70;;;;;;5098269;28;20318;-88
2021/10/17 10:29:03;;;;;;;4.47;2.83;;;17.90;96.70;;;;;;5072719;28;20325;-89
2021/10/17 10:31:46;;;;;;;5.50;3.10;;;17.90;96.70;;;;;;5100403;28;20068;-89
2021/10/17 10:35:01;;;;;;;5.97;2.65;;;18.00;96.70;;;;;;5092953;28;20040;-89
2021/10/17 10:37:30;;;;;;;3.42;2.40;;;18.20;96.70;;;;;;5078701;28;20276;-90
2021/10/17 10:40:12;;;;;;;3.65;2.70;;;18.20;96.70;;;;;;5091688;28;20068;-91
2021/10/17 10:42:43;;;;;;;2.92;2.63;;;18.20;96.70;;;;;;5091850;28;20066;-92
2021/10/17 10:45:32;;;;;;;4.10;2.80;;;18.20;96.70;;;;;;5104184;28;20059;-89
2021/10/17 10:48:22;;;;;;;6.32;3.08;;;18.30;96.70;;;;;;5096079;28;20051;-89
2021/10/17 10:50:57;;;;;;;4.05;3.15;;;18.40;96.70;;;;;;5094711;28;20044;-90
2021/10/17 10:53:44;;;;;;;2.88;2.53;;;18.50;96.70;;;;;;5092672;28;20032;-90
2021/10/17 10:56:41;;;;;;;;;;;18.60;96.70;;;;;;5092471;28;20054;-88
2021/10/17 10:59:11;;;;;;;4.68;2.80;;;18.60;96.70;;;;;;5078481;28;19930;-90
2021/10/17 11:01:55;;;;;;;3.67;2.80;;;18.70;96.70;;;;;;5093385;28;20079;-88
2021/10/17 11:05:03;;;;;;;3.80;2.80;;;18.90;96.70;;;;;;5082453;28;20160;-90
2021/10/17 11:07:33;;;;;;;3.90;3.22;;;19.20;96.70;;;;;;5100994;28;20497;-90
2021/10/17 11:10:41;;;;;;;3.17;2.28;;;19.20;96.70;;;;;;5091021;28;20044;-90
2021/10/17 11:13:11;;;;;;;6.38;4.25;;;19.30;96.70;;;;;;5096932;28;20135;-90
2021/10/17 11:15:46;;;;;;;4.35;3.20;;;19.50;96.70;;;;;;5074217;28;20040;-89
2021/10/17 11:18:16;;;;;;;4.50;3.17;;;19.60;96.70;;;;;;5089245;28;20134;-91
2021/10/17 11:20:48;;;;;;;5.20;3.70;;;19.80;96.70;;;;;;5087352;28;20040;-90
2021/10/17 11:23:18;;;;;;;3.97;2.78;;;19.80;96.70;;;;;;5088531;28;20071;-91
2021/10/17 11:25:55;;;;;;;3.80;2.15;;;19.70;96.40;;;;;;5093897;27;20040;-92
2021/10/17 11:28:24;;;;;;;3.95;2.72;;;19.80;96.20;;;;;;5069704;28;20052;-91
2021/10/17 11:31:02;;;;;;;3.75;2.45;;;19.80;96.00;;;;;;5089403;28;20103;-90
2021/10/17 11:33:32;;;;;;;3.78;2.35;;;19.80;95.90;;;;;;5077527;28;20069;-92
2021/10/17 11:36:01;;;;;;;3.45;1.98;;;19.90;95.40;;;;;;5080315;28;20044;-91
2021/10/17 11:38:29;;;;;;;2.20;1.98;;;19.90;95.00;;;;;;5080126;28;20476;-89
2021/10/17 11:41:05;;;;;;;3.63;2.10;;;20.00;94.90;;;;;;5101226;28;20028;-88
2021/10/17 11:43:34;;;;;;;;;;;20.20;94.40;;;;;;5073941;28;20043;-86
2021/10/17 11:46:04;;;;;;;4.50;2.22;;;20.30;94.40;;;;;;5076069;28;19931;-87
2021/10/17 11:48:35;;;;;;;5.32;2.30;;;20.40;93.90;;;;;;5090048;28;20123;-86
2021/10/17 11:51:05;;;;;;;5.63;2.20;;;20.40;94.00;;;;;;5091132;28;20040;-86
2021/10/17 11:53:34;;;;;;;3.20;1.90;;;20.70;93.70;;;;;;5088511;28;20035;-88
2021/10/17 11:56:05;;;;;;;4.25;1.95;;;20.90;92.40;;;;;;5090292;28;20059;-90
2021/10/17 11:58:34;;;;;;;3.63;1.98;;;21.20;92.50;;;;;;5094316;28;20071;-89
2021/10/17 12:01:11;;;;;;;2.25;1.67;;;21.40;91.70;;;;;;5087310;28;20040;-89
2021/10/17 12:03:42;;;;;;;3.67;2.00;;;21.30;90.30;;;;;;5088243;28;20467;-88
2021/10/17 12:06:15;;;;;;;2.78;1.75;;;21.40;90.30;;;;;;5071462;28;20555;-87
2021/10/17 12:08:50;;;;;;;2.35;1.20;;;21.40;90.30;;;;;;5074554;28;20131;-88
2021/10/17 12:11:19;;;;;;;4.18;3.17;;;21.60;88.60;;;;;;5096710;28;20044;-89
2021/10/17 12:14:08;;;;;;;3.17;2.00;;;21.90;86.40;;;;;;5090047;28;20044;-88
2021/10/17 12:16:42;;;;;;;1.98;1.58;;;21.90;88.00;;;;;;5089069;28;20144;-88
2021/10/17 12:19:13;;;;;;;2.58;1.35;;;21.70;88.80;;;;;;5087285;28;20068;-88
2021/10/17 12:21:43;;;;;;;1.40;0.85;;;21.80;86.60;;;;;;5079846;28;20043;-87
2021/10/17 12:24:14;;;;;;;1.70;0.80;;;21.80;84.40;;;;;;5086969;28;20510;-88
2021/10/17 12:26:52;;;;;;;0.90;0.60;;;21.90;83.60;;;;;;5074396;28;20889;-88
2021/10/17 12:29:22;;;;;;;1.63;0.90;;;22.10;83.60;;;;;;5093805;28;20067;-89
2021/10/17 12:31:53;;;;;;;0.73;0.60;;;22.30;83.10;;;;;;5088079;28;20044;-88
2021/10/17 12:37:19;;;;;;;2.17;0.80;;;22.30;83.50;;;;;;5117813;27;1528927;-88
2021/10/17 12:39:47;;;;;;;1.17;0.70;;;22.30;83.00;;;;;;5141967;27;20031;-88
2021/10/17 12:42:15;;;;;;;2.13;0.50;;;22.20;82.50;;;;;;5137320;27;20066;-86
2021/10/17 12:45:10;;;;;;;0.90;0.77;;;22.30;82.80;;;;;;5136385;27;20083;-87
2021/10/17 12:47:40;;;;;;;1.08;0.80;;;22.50;82.50;;;;;;5103646;27;20081;-85
2021/10/17 12:50:15;;;;;;;1.33;1.00;;;22.60;82.00;;;;;;5121869;27;20042;-85
2021/10/17 12:52:56;;;;;;;0.93;0.65;;;22.70;82.20;;;;;;5121879;27;20100;-86
2021/10/17 12:55:33;;;;;;;2.10;0.73;;;22.50;82.10;;;;;;5135756;27;20054;-85
2021/10/17 12:58:03;;;;;;;0.93;0.70;;;22.70;81.70;;;;;;5138989;27;20049;-86
2021/10/17 13:00:32;;;;;;;0.77;0.70;;;22.60;82.30;;;;;;5121712;27;20047;-85
2021/10/17 13:03:17;;;;;;;1.33;0.77;;;22.60;82.10;;;;;;5123636;27;20045;-83
2021/10/17 13:05:51;;;;;;;1.57;0.73;;;22.80;81.30;;;;;;5111938;27;20580;-88
2021/10/17 13:08:22;;;;;;;0.80;0.68;;;22.70;80.90;;;;;;5122334;27;20042;-89
2021/10/17 13:10:52;;;;;;;1.65;1.10;;;22.70;81.50;;;;;;5120322;27;20496;-89
2021/10/17 13:13:22;;;;;;;1.67;1.30;;;22.70;81.20;;;;;;5114408;27;20047;-88
2021/10/17 13:15:54;;;;;;;1.92;1.30;;;22.80;80.90;;;;;;5106107;27;20043;-88